Time;durP1;ratioP1;P1;durP2;ratioP2;P2;SDS_P1;SDS_P2;PMS_P1;PMS_P2;Temp;Humidity;BMP_temperature;BMP_pressure;BME280_temperature;BME280_humidity;BME280_pressure;Samples;Min_cycle;Max_cycle;Signal;HPM_P1;HPM_P2
2022/06/01 00:01:27;;;;;;;6.50;2.10;;;;;;;40.58;5.89;100414.28;5088777;28;20028;-66
2022/06/01 00:03:54;;;;;;;7.93;1.58;;;;;;;41.16;5.68;100406.59;5086834;28;20031;-65
2022/06/01 00:06:21;;;;;;;3.63;1.67;;;;;;;40.99;5.48;100415.56;5089072;28;20040;-64
2022/06/01 00:08:48;;;;;;;4.30;1.40;;;;;;;40.51;5.70;100422.34;5085691;28;20039;-65
2022/06/01 00:11:16;;;;;;;11.82;1.73;;;;;;;40.29;6.19;100408.31;5086880;28;20112;-64
2022/06/01 00:13:43;;;;;;;5.68;1.80;;;;;;;40.03;5.97;100414.34;5086000;28;20570;-64
2022/06/01 00:16:10;;;;;;;6.45;1.67;;;;;;;39.93;6.55;100420.50;5090209;28;20390;-64
2022/06/01 00:18:37;;;;;;;4.05;1.20;;;;;;;39.90;6.48;100408.00;5085065;28;20097;-64
2022/06/01 00:21:05;;;;;;;5.57;1.38;;;;;;;39.40;6.07;100413.00;5085290;28;20127;-64
2022/06/01 00:23:31;;;;;;;14.27;1.50;;;;;;;37.29;7.22;100410.78;5085965;28;20676;-64
2022/06/01 00:25:58;;;;;;;6.72;1.40;;;;;;;38.48;6.61;100408.19;5088717;28;20501;-64
2022/06/01 00:28:25;;;;;;;3.90;1.30;;;;;;;38.88;6.24;100405.41;5083022;28;20039;-64
2022/06/01 00:30:52;;;;;;;3.83;1.40;;;;;;;38.85;6.51;100398.63;5085427;28;20051;-64
2022/06/01 00:33:19;;;;;;;11.07;1.88;;;;;;;39.12;6.41;100395.09;5083785;28;20386;-64
2022/06/01 00:35:46;;;;;;;6.82;1.58;;;;;;;39.33;5.77;100404.78;5086846;28;20031;-64
2022/06/01 00:38:14;;;;;;;5.90;1.70;;;;;;;38.59;6.78;100394.34;5088461;28;20047;-64
2022/06/01 00:40:40;;;;;;;4.97;1.48;;;;;;;37.89;6.88;100398.63;5087975;28;20119;-64
2022/06/01 00:43:24;;;;;;;3.88;1.50;;;;;;;38.60;6.27;100396.75;5083225;28;20326;-63
2022/06/01 00:45:51;;;;;;;4.80;1.40;;;;;;;38.80;6.06;100392.75;5085566;28;20051;-64
2022/06/01 00:48:22;;;;;;;6.53;1.20;;;;;;;37.84;6.52;100400.00;5088389;28;20020;-64
2022/06/01 00:50:49;;;;;;;4.55;1.70;;;;;;;38.29;6.60;100396.72;5086040;28;20089;-66
2022/06/01 00:53:23;;;;;;;4.07;1.40;;;;;;;38.54;6.57;100392.91;5080513;28;20115;-64
2022/06/01 00:55:56;;;;;;;6.43;1.65;;;;;;;38.78;6.76;100395.25;5077939;28;20042;-64
2022/06/01 00:58:27;;;;;;;5.35;1.50;;;;;;;38.77;6.43;100394.47;5075376;28;20153;-63
2022/06/01 01:00:58;;;;;;;5.57;1.40;;;;;;;38.63;6.35;100390.16;5074396;28;20021;-63
2022/06/01 01:03:28;;;;;;;4.50;1.80;;;;;;;38.62;6.33;100399.13;5075563;28;20036;-62
2022/06/01 01:06:02;;;;;;;7.28;1.50;;;;;;;37.67;7.07;100384.38;5078510;28;20070;-63
2022/06/01 01:08:28;;;;;;;6.88;1.33;;;;;;;37.82;6.75;100399.66;5074738;28;20033;-66
2022/06/01 01:10:55;;;;;;;6.25;1.63;;;;;;;37.77;6.73;100386.06;5076656;28;20506;-65
2022/06/01 01:13:23;;;;;;;5.30;1.65;;;;;;;37.50;6.71;100395.88;5075588;28;20100;-65
2022/06/01 01:15:52;;;;;;;3.67;1.38;;;;;;;37.58;6.88;100385.09;5077217;28;20028;-66
2022/06/01 01:18:23;;;;;;;3.97;1.25;;;;;;;37.89;6.33;100382.41;5075719;28;20159;-63
2022/06/01 01:21:02;;;;;;;2.58;0.98;;;;;;;38.04;6.07;100394.00;5075595;28;20049;-64
2022/06/01 01:24:01;;;;;;;3.10;1.33;;;;;;;37.11;6.97;100390.72;5075745;28;20041;-65
2022/06/01 01:26:29;;;;;;;6.45;1.60;;;;;;;37.22;6.43;100391.16;5045873;28;20048;-65
2022/06/01 01:28:55;;;;;;;9.00;1.95;;;;;;;37.02;6.69;100390.63;5076133;28;20024;-65
2022/06/01 01:31:25;;;;;;;9.27;1.98;;;;;;;36.47;7.22;100398.41;5076964;28;20028;-65
2022/06/01 01:33:55;;;;;;;8.48;1.55;;;;;;;36.68;6.68;100388.47;5078766;28;20085;-65
2022/06/01 01:36:31;;;;;;;5.35;1.27;;;;;;;35.96;7.37;100398.25;5081007;28;20028;-66
2022/06/01 01:39:11;;;;;;;11.70;2.00;;;;;;;36.33;7.08;100387.50;5078978;28;20491;-64
2022/06/01 01:41:38;;;;;;;4.15;1.50;;;;;;;36.45;6.89;100395.25;5077223;28;20039;-65
2022/06/01 01:44:27;;;;;;;8.18;1.45;;;;;;;36.49;6.65;100401.59;5074616;28;20069;-64
2022/06/01 01:46:56;;;;;;;7.85;1.55;;;;;;;36.36;6.53;100397.94;5076743;28;20048;-64
2022/06/01 01:49:27;;;;;;;14.48;1.75;;;;;;;35.60;7.63;100398.41;5078418;28;20039;-64
2022/06/01 01:52:00;;;;;;;7.97;1.80;;;;;;;35.53;8.03;100401.41;5079905;28;21152;-65
2022/06/01 01:54:54;;;;;;;4.57;1.42;;;;;;;34.92;8.12;100405.72;5074587;28;20487;-65
2022/06/01 01:57:30;;;;;;;8.07;1.77;;;;;;;34.89;8.20;100411.44;5075851;28;20029;-65
2022/06/01 02:00:17;;;;;;;8.95;1.80;;;;;;;34.91;8.41;100400.50;5079353;28;20039;-65
2022/06/01 02:02:50;;;;;;;6.60;1.60;;;;;;;34.61;8.20;100401.56;5079088;28;20040;-65
2022/06/01 02:08:34;;;;;;;7.85;1.80;;;;;;;34.29;8.50;100405.03;5080729;28;20032;-65
2022/06/01 02:14:00;;;;;;;14.73;2.28;;;;;;;33.92;8.85;100396.50;5081988;28;20474;-64
2022/06/01 02:16:31;;;;;;;8.05;2.10;;;;;;;33.74;9.18;100401.66;5078764;28;20056;-65
2022/06/01 02:19:01;;;;;;;25.30;2.63;;;;;;;33.51;9.51;100405.31;5087727;28;20081;-65
2022/06/01 02:21:29;;;;;;;17.90;2.17;;;;;;;33.35;9.77;100397.53;5092315;28;20064;-65
2022/06/01 02:24:00;;;;;;;14.05;2.72;;;;;;;33.26;9.72;100400.06;5079186;28;20040;-65
2022/06/01 02:26:28;;;;;;;21.50;3.95;;;;;;;33.08;9.74;100396.75;5078497;28;20169;-64
2022/06/01 02:29:07;;;;;;;18.77;4.22;;;;;;;32.96;9.62;100392.50;5078668;28;20048;-65
2022/06/01 02:31:35;;;;;;;17.35;4.00;;;;;;;32.86;9.54;100393.47;5078650;28;20032;-65
2022/06/01 02:34:05;;;;;;;20.67;4.32;;;;;;;32.74;10.13;100403.25;5084399;28;20023;-64
2022/06/01 02:36:33;;;;;;;13.73;3.60;;;;;;;32.46;10.23;100396.00;5093657;28;20053;-65
2022/06/01 02:39:03;;;;;;;20.58;3.58;;;;;;;32.58;9.96;100407.91;5093317;28;20107;-65
2022/06/01 02:44:17;;;;;;;19.55;3.83;;;;;;;32.42;10.31;100400.09;5093252;28;20036;-65
2022/06/01 02:46:44;;;;;;;21.60;4.38;;;;;;;32.24;10.64;100400.28;5094838;28;20023;-65
2022/06/01 02:49:11;;;;;;;14.95;3.35;;;;;;;32.14;10.52;100402.03;5094863;28;20028;-64
2022/06/01 02:51:38;;;;;;;22.20;3.50;;;;;;;31.95;10.77;100407.44;5094861;28;20150;-64
2022/06/01 02:54:05;;;;;;;22.77;3.95;;;;;;;31.88;10.63;100408.34;5094590;28;20118;-64
2022/06/01 02:56:32;;;;;;;24.25;3.70;;;;;;;31.60;10.82;100408.56;5093720;28;20486;-64
2022/06/01 02:58:59;;;;;;;27.95;4.38;;;;;;;31.87;10.72;100417.97;5093391;28;20507;-65
2022/06/01 03:01:25;;;;;;;23.77;3.63;;;;;;;31.65;11.24;100423.00;5091847;28;20035;-65
2022/06/01 03:03:53;;;;;;;22.35;3.55;;;;;;;31.28;11.48;100420.91;5094635;28;20043;-65
2022/06/01 03:06:20;;;;;;;26.60;3.88;;;;;;;31.42;11.10;100429.22;5094564;28;20138;-65
2022/06/01 03:08:47;;;;;;;25.20;4.18;;;;;;;31.04;11.78;100427.47;5094390;28;20023;-64
2022/06/01 03:11:14;;;;;;;25.80;3.67;;;;;;;30.75;12.10;100447.31;5094379;28;20551;-64
2022/06/01 03:13:42;;;;;;;23.65;3.88;;;;;;;30.64;12.08;100443.75;5092861;28;20099;-65
2022/06/01 03:16:08;;;;;;;28.33;6.70;;;;;;;30.51;12.44;100448.16;5094300;28;20550;-65
2022/06/01 03:18:35;;;;;;;21.23;4.78;;;;;;;30.61;12.46;100450.97;5094091;28;20077;-65
2022/06/01 03:21:03;;;;;;;24.58;4.18;;;;;;;30.57;12.64;100455.78;5093695;28;20085;-65
2022/06/01 03:23:31;;;;;;;22.52;3.80;;;;;;;30.49;12.48;100444.97;5094139;28;20500;-64
2022/06/01 03:25:58;;;;;;;24.98;4.30;;;;;;;30.56;12.54;100453.38;5093501;28;20100;-64
2022/06/01 03:28:25;;;;;;;40.45;6.28;;;;;;;30.21;12.65;100449.50;5092660;28;20032;-63
2022/06/01 03:30:52;;;;;;;31.50;10.55;;;;;;;30.12;12.88;100453.91;5093968;28;20380;-64
2022/06/01 03:33:19;;;;;;;44.40;16.45;;;;;;;30.02;13.17;100461.13;5094032;28;20604;-64
2022/06/01 03:35:46;;;;;;;39.85;15.05;;;;;;;29.87;13.54;100456.75;5092835;28;20074;-65
2022/06/01 03:38:13;;;;;;;32.22;13.85;;;;;;;29.88;13.32;100461.16;5078104;28;20490;-65
2022/06/01 03:40:40;;;;;;;35.05;7.57;;;;;;;29.76;13.21;100465.97;5076686;28;20036;-65
2022/06/01 03:43:07;;;;;;;30.80;6.70;;;;;;;29.61;13.74;100469.16;5077864;28;20039;-65
2022/06/01 03:48:22;;;;;;;27.10;5.38;;;;;;;29.34;14.02;100491.94;5077880;28;20047;-65
2022/06/01 03:50:49;;;;;;;35.70;5.15;;;;;;;29.14;14.12;100487.91;5075834;28;20102;-66
2022/06/01 03:53:16;;;;;;;15.80;6.60;;;;;;;29.14;14.21;100499.91;5076766;28;20115;-65
2022/06/01 03:55:43;;;;;;;23.90;6.38;;;;;;;29.09;14.91;100496.69;5078386;28;20019;-65
2022/06/01 03:58:15;;;;;;;24.40;6.35;;;;;;;28.95;14.79;100502.25;5075226;28;20036;-64
2022/06/01 04:00:43;;;;;;;19.70;6.00;;;;;;;28.81;15.13;100500.16;5077352;28;20483;-64
2022/06/01 04:03:10;;;;;;;36.47;6.35;;;;;;;28.64;15.35;100503.69;5076617;28;20033;-64
2022/06/01 04:05:38;;;;;;;31.75;6.18;;;;;;;28.39;15.74;100512.78;5074414;28;20154;-65
2022/06/01 04:08:06;;;;;;;30.90;6.85;;;;;;;28.29;15.84;100519.91;5079363;28;20490;-64
2022/06/01 04:10:39;;;;;;;33.33;6.63;;;;;;;28.17;15.83;100519.38;5076088;28;20048;-65
2022/06/01 04:13:06;;;;;;;33.35;5.75;;;;;;;28.03;16.25;100519.31;5086841;28;20055;-64
2022/06/01 04:15:32;;;;;;;29.42;5.97;;;;;;;27.88;16.69;100530.34;5083018;28;20028;-65
2022/06/01 04:17:59;;;;;;;25.52;5.05;;;;;;;27.81;16.48;100529.47;5078268;28;20036;-65
2022/06/01 04:20:26;;;;;;;17.80;4.30;;;;;;;27.68;17.07;100531.78;5081525;28;20019;-65
2022/06/01 04:22:54;;;;;;;21.48;4.30;;;;;;;27.67;17.54;100536.56;5082375;28;20115;-64
2022/06/01 04:25:23;;;;;;;28.20;4.47;;;;;;;27.59;18.09;100548.81;5081640;28;20389;-65
2022/06/01 04:27:50;;;;;;;29.05;5.70;;;;;;;27.60;18.19;100549.63;5089498;28;20482;-65
2022/06/01 04:30:18;;;;;;;39.38;10.45;;;;;;;27.72;18.26;100543.00;5083630;28;20036;-65
2022/06/01 04:32:47;;;;;;;35.20;9.15;;;;;;;27.74;18.52;100541.41;5080852;28;20055;-64
2022/06/01 04:35:16;;;;;;;77.90;13.90;;;;;;;27.55;18.70;100547.19;5085638;28;20024;-64
2022/06/01 04:37:43;;;;;;;34.40;8.88;;;;;;;27.46;18.86;100553.06;5088081;28;20075;-66
2022/06/01 04:40:13;;;;;;;36.83;9.25;;;;;;;27.37;19.46;100560.97;5080867;28;20025;-65
2022/06/01 04:42:41;;;;;;;94.55;11.05;;;;;;;27.10;21.91;100557.47;5084965;28;20039;-65
2022/06/01 04:45:11;;;;;;;366.02;22.73;;;;;;;26.81;21.55;100561.88;5084659;28;20020;-65
2022/06/01 04:47:39;;;;;;;98.75;9.73;;;;;;;26.65;25.11;100569.63;5081686;28;20043;-66
2022/06/01 04:50:07;;;;;;;41.70;5.75;;;;;;;26.51;23.40;100564.66;5083663;28;20020;-64
2022/06/01 04:52:34;;;;;;;46.58;5.90;;;;;;;26.54;22.22;100563.88;5081246;28;20031;-64
2022/06/01 04:55:01;;;;;;;30.88;6.05;;;;;;;26.55;20.91;100565.50;5083563;28;20020;-64
2022/06/01 04:57:28;;;;;;;30.80;6.00;;;;;;;26.58;21.19;100575.13;5087547;28;20414;-64
2022/06/01 04:59:55;;;;;;;40.63;6.45;;;;;;;26.53;22.18;100579.00;5081837;28;20051;-64
2022/06/01 05:02:22;;;;;;;37.15;6.40;;;;;;;26.49;21.64;100578.16;5088756;28;20036;-64
2022/06/01 05:04:49;;;;;;;40.30;7.20;;;;;;;26.47;21.30;100591.66;5087558;28;20097;-64
2022/06/01 05:07:16;;;;;;;36.72;6.20;;;;;;;26.27;21.26;100592.94;5086435;28;20024;-64
2022/06/01 05:09:42;;;;;;;41.60;6.85;;;;;;;26.17;22.59;100600.72;5082289;28;20090;-65
2022/06/01 05:12:09;;;;;;;67.78;7.63;;;;;;;26.09;23.28;100610.16;5080792;28;20036;-64
2022/06/01 05:14:36;;;;;;;37.53;6.65;;;;;;;26.08;22.34;100614.13;5079879;28;20031;-64
2022/06/01 05:17:03;;;;;;;41.92;7.70;;;;;;;26.03;22.97;100616.38;5085018;28;20025;-66
2022/06/01 05:19:33;;;;;;;30.92;6.60;;;;;;;26.03;24.40;100620.00;5078603;28;20029;-67
2022/06/01 05:22:00;;;;;;;28.85;7.45;;;;;;;26.12;24.68;100625.31;5083319;28;20082;-65
2022/06/01 05:24:27;;;;;;;26.85;7.82;;;;;;;26.18;22.86;100626.59;5088279;28;20042;-66
2022/06/01 05:26:54;;;;;;;32.60;6.85;;;;;;;26.14;21.96;100618.19;5084031;28;20552;-66
2022/06/01 05:29:22;;;;;;;39.65;7.90;;;;;;;26.10;22.52;100620.13;5078882;28;20501;-65
2022/06/01 05:31:49;;;;;;;42.28;8.30;;;;;;;26.10;21.78;100613.75;5081876;28;20079;-65
2022/06/01 05:34:16;;;;;;;33.20;7.45;;;;;;;25.93;22.06;100615.03;5088937;28;20138;-66
2022/06/01 05:36:43;;;;;;;35.25;7.93;;;;;;;25.78;22.57;100629.88;5081254;28;20028;-67
2022/06/01 05:39:10;;;;;;;39.22;7.63;;;;;;;25.68;22.67;100616.59;5083678;28;20051;-66
2022/06/01 05:41:37;;;;;;;47.22;8.50;;;;;;;25.64;23.20;100615.66;5083417;28;20069;-65
2022/06/01 05:44:04;;;;;;;46.13;8.32;;;;;;;25.66;23.04;100616.09;5083364;28;20555;-66
2022/06/01 05:46:31;;;;;;;43.90;7.53;;;;;;;25.78;22.58;100627.09;5082755;28;20150;-65
2022/06/01 05:48:58;;;;;;;39.92;8.93;;;;;;;25.70;22.23;100625.38;5082065;28;20035;-68
2022/06/01 05:51:25;;;;;;;48.35;8.70;;;;;;;25.72;22.08;100628.59;5075366;28;20028;-67
2022/06/01 05:53:51;;;;;;;37.28;8.38;;;;;;;25.70;22.37;100636.50;5080011;28;20028;-67
2022/06/01 05:56:19;;;;;;;41.67;8.63;;;;;;;25.58;23.13;100629.09;5078704;28;20039;-65
2022/06/01 05:58:47;;;;;;;46.75;9.73;;;;;;;25.56;23.35;100632.25;5075207;28;20055;-66
2022/06/01 06:01:17;;;;;;;42.70;9.23;;;;;;;25.50;23.37;100632.94;5074186;28;20032;-68
2022/06/01 06:03:44;;;;;;;40.10;9.05;;;;;;;25.58;23.36;100635.47;5076772;28;20048;-67
2022/06/01 06:06:15;;;;;;;55.83;9.43;;;;;;;25.46;23.07;100637.59;5075666;28;20060;-68
2022/06/01 06:08:45;;;;;;;46.20;9.65;;;;;;;25.44;23.24;100629.63;5076783;28;20028;-69
2022/06/01 06:11:14;;;;;;;53.40;9.93;;;;;;;25.41;23.74;100633.13;5062422;28;20032;-64
2022/06/01 06:13:41;;;;;;;45.13;9.13;;;;;;;25.32;23.58;100632.56;5077865;28;20035;-67
2022/06/01 06:16:08;;;;;;;37.85;9.00;;;;;;;25.38;23.79;100631.09;5062167;28;20029;-67
2022/06/01 06:18:36;;;;;;;44.42;9.85;;;;;;;25.38;23.76;100628.31;5075974;28;20036;-66
2022/06/01 06:21:04;;;;;;;41.88;8.55;;;;;;;25.36;23.95;100627.88;5078750;28;20483;-67
2022/06/01 06:23:31;;;;;;;51.13;8.65;;;;;;;25.42;24.48;100634.75;5067941;28;20060;-67
2022/06/01 06:25:59;;;;;;;70.70;10.45;;;;;;;25.43;24.47;100619.66;5065658;28;20036;-68
2022/06/01 06:28:26;;;;;;;43.47;8.93;;;;;;;25.36;24.26;100627.88;5074737;28;20029;-66
2022/06/01 06:30:53;;;;;;;56.45;9.73;;;;;;;25.35;23.83;100623.50;5079998;28;20113;-66
2022/06/01 06:33:20;;;;;;;48.08;9.88;;;;;;;25.28;23.43;100620.53;5084163;28;20050;-66
2022/06/01 06:36:00;;;;;;;51.17;9.90;;;;;;;25.19;24.64;100619.97;5068745;28;20040;-66
2022/06/01 06:38:29;;;;;;;45.40;9.98;;;;;;;25.34;24.58;100613.53;5081719;28;20024;-64
2022/06/01 06:40:58;;;;;;;53.38;11.15;;;;;;;25.36;24.01;100624.28;5077445;28;20032;-65
2022/06/01 06:43:27;;;;;;;49.22;14.40;;;;;;;25.16;24.23;100612.38;5076983;28;20040;-65
2022/06/01 06:46:06;;;;;;;60.13;12.85;;;;;;;25.28;23.76;100610.22;5082676;28;20094;-65
2022/06/01 06:48:33;;;;;;;103.32;14.93;;;;;;;25.18;24.25;100616.38;5083607;28;20028;-65
2022/06/01 06:51:00;;;;;;;76.97;15.90;;;;;;;24.94;23.92;100614.66;5067452;28;20115;-65
2022/06/01 06:53:28;;;;;;;91.00;15.18;;;;;;;24.90;24.53;100616.56;5080386;28;20447;-65
2022/06/01 06:55:55;;;;;;;79.65;14.15;;;;;;;24.89;24.88;100626.06;5082483;28;20472;-65
2022/06/01 06:58:23;;;;;;;87.63;16.20;;;;;;;24.86;24.33;100626.78;5085194;28;20078;-65
2022/06/01 07:00:50;;;;;;;93.30;18.33;;;;;;;24.80;24.34;100622.69;5087242;28;20046;-66
2022/06/01 07:03:17;;;;;;;87.30;19.25;;;;;;;24.79;24.27;100620.28;5085565;28;20075;-65
2022/06/01 07:08:30;;;;;;;105.53;22.08;;;;;;;24.76;23.54;100621.78;5085918;28;20039;-65
2022/06/01 07:10:59;;;;;;;91.28;20.40;;;;;;;24.69;24.37;100621.66;5074989;28;20093;-65
2022/06/01 07:13:29;;;;;;;111.40;21.40;;;;;;;24.59;24.62;100623.00;5093745;28;20028;-65
2022/06/01 07:16:05;;;;;;;110.13;20.65;;;;;;;24.76;24.50;100638.47;5090958;28;20050;-65
2022/06/01 07:18:33;;;;;;;92.82;20.05;;;;;;;24.67;24.52;100632.31;5090965;28;20398;-65
2022/06/01 07:21:00;;;;;;;117.75;22.25;;;;;;;24.56;24.97;100631.25;5092578;28;20044;-65
2022/06/01 07:23:29;;;;;;;95.30;22.40;;;;;;;24.82;23.64;100637.03;5060154;28;20051;-65
2022/06/01 07:25:57;;;;;;;119.22;22.08;;;;;;;24.99;23.08;100639.44;5092792;28;20182;-64
2022/06/01 07:28:24;;;;;;;111.15;25.50;;;;;;;24.83;23.03;100638.66;5094452;28;20372;-64
2022/06/01 07:30:56;;;;;;;114.78;24.65;;;;;;;24.79;22.98;100635.00;5094771;28;20036;-65
2022/06/01 07:33:25;;;;;;;108.32;27.58;;;;;;;24.66;22.81;100644.59;5093247;28;20101;-65
2022/06/01 07:35:53;;;;;;;104.47;25.48;;;;;;;24.45;23.45;100641.34;5091795;28;20031;-65
2022/06/01 07:43:59;;;;;;;105.82;22.40;;;;;;;24.10;24.44;100642.03;5092726;28;20084;-65
2022/06/01 07:46:26;;;;;;;100.47;21.60;;;;;;;24.14;24.62;100637.38;5093470;28;20024;-65
2022/06/01 07:48:53;;;;;;;107.63;24.60;;;;;;;24.24;23.91;100634.06;5093721;28;20155;-65
2022/06/01 07:51:20;;;;;;;90.32;23.75;;;;;;;24.23;23.75;100631.63;5077007;28;20031;-65
2022/06/01 07:53:50;;;;;;;103.47;22.75;;;;;;;24.07;24.35;100638.00;5094340;28;20028;-65
2022/06/01 07:56:17;;;;;;;98.57;23.15;;;;;;;23.87;25.33;100646.56;5094235;28;20031;-65
2022/06/01 07:58:44;;;;;;;96.57;23.08;;;;;;;23.77;24.76;100654.25;5094884;28;20039;-65
2022/06/01 08:01:11;;;;;;;92.18;22.70;;;;;;;23.90;24.53;100654.22;5093597;28;20035;-64
2022/06/01 08:03:38;;;;;;;103.15;23.55;;;;;;;23.90;24.77;100662.53;5094732;28;20031;-64
2022/06/01 08:06:05;;;;;;;87.07;22.98;;;;;;;23.92;24.85;100658.22;5094801;28;20387;-64
2022/06/01 08:08:32;;;;;;;87.18;21.08;;;;;;;23.71;25.59;100664.03;5094493;28;20083;-63
2022/06/01 08:10:59;;;;;;;89.40;21.63;;;;;;;23.64;25.60;100669.34;5094757;28;20047;-63
2022/06/01 08:13:26;;;;;;;79.53;21.25;;;;;;;23.86;26.75;100667.97;5094710;28;20069;-63
2022/06/01 08:15:55;;;;;;;92.13;22.80;;;;;;;24.06;24.53;100661.38;5094944;28;20470;-63
2022/06/01 08:18:23;;;;;;;78.18;22.02;;;;;;;24.10;24.50;100655.91;5094715;28;20043;-63
2022/06/01 08:20:51;;;;;;;86.75;21.08;;;;;;;24.54;23.75;100648.28;5093886;28;20016;-64
2022/06/01 08:23:19;;;;;;;84.25;21.15;;;;;;;24.40;23.88;100653.50;5094100;28;20051;-63
2022/06/01 08:25:46;;;;;;;122.72;21.38;;;;;;;24.17;24.95;100649.72;5093647;28;20066;-63
2022/06/01 08:28:13;;;;;;;67.13;19.55;;;;;;;24.35;24.21;100646.25;5094402;28;20028;-63
2022/06/01 08:30:41;;;;;;;73.97;19.25;;;;;;;24.42;23.83;100648.41;5094323;28;20107;-63
2022/06/01 08:33:09;;;;;;;61.75;17.67;;;;;;;24.26;24.19;100642.84;5094145;28;20119;-63
2022/06/01 08:35:38;;;;;;;67.75;18.30;;;;;;;24.11;24.68;100651.97;5094211;28;20035;-63
2022/06/01 08:38:05;;;;;;;73.25;17.10;;;;;;;24.22;24.23;100661.38;5093969;28;20063;-63
2022/06/01 08:40:43;;;;;;;57.25;17.60;;;;;;;24.19;24.69;100652.94;5094312;28;20101;-63
2022/06/01 08:43:13;;;;;;;59.05;16.65;;;;;;;24.36;24.15;100658.16;5093004;28;20036;-64
2022/06/01 08:45:44;;;;;;;59.58;16.50;;;;;;;24.31;24.50;100650.94;5092648;28;20394;-63
2022/06/01 08:48:22;;;;;;;59.78;15.00;;;;;;;24.25;24.36;100654.31;5092077;28;20111;-63
2022/06/01 08:50:49;;;;;;;55.88;13.95;;;;;;;24.50;24.36;100652.97;5091889;28;20032;-63
2022/06/01 08:53:17;;;;;;;51.25;13.60;;;;;;;24.38;24.28;100644.72;5091807;28;20024;-64
2022/06/01 08:55:51;;;;;;;47.17;12.60;;;;;;;24.36;24.25;100649.84;5091838;28;20032;-63
2022/06/01 08:58:29;;;;;;;45.25;12.00;;;;;;;24.51;24.27;100651.81;5091809;28;20040;-63
2022/06/01 09:01:10;;;;;;;41.55;11.02;;;;;;;25.20;22.96;100646.63;5093286;28;20501;-63
2022/06/01 09:03:49;;;;;;;47.97;10.73;;;;;;;25.55;23.10;100641.78;5092500;28;20036;-63
2022/06/01 09:06:26;;;;;;;45.50;10.63;;;;;;;25.57;22.86;100644.97;5092542;28;20055;-63
2022/06/01 09:09:10;;;;;;;43.22;10.93;;;;;;;25.23;23.57;100630.00;5092623;28;20020;-63
2022/06/01 09:11:38;;;;;;;47.45;9.98;;;;;;;24.95;24.24;100641.28;5093860;28;20084;-63
2022/06/01 09:14:36;;;;;;;39.95;9.15;;;;;;;24.85;24.50;100641.88;5093625;28;20084;-63
2022/06/01 09:17:04;;;;;;;41.72;10.52;;;;;;;24.47;25.39;100644.56;5093379;28;20028;-64
2022/06/01 09:22:39;;;;;;;30.98;8.68;;;;;;;24.17;25.98;100650.53;5072633;28;20055;-64
2022/06/01 09:25:07;;;;;;;25.77;8.75;;;;;;;24.13;26.70;100643.28;5073332;28;20115;-64
2022/06/01 09:27:39;;;;;;;32.22;8.57;;;;;;;23.97;27.10;100640.50;5073066;28;20033;-64
2022/06/01 09:30:40;;;;;;;35.55;8.40;;;;;;;23.86;27.63;100650.50;5071892;28;20120;-64
2022/06/01 09:33:28;;;;;;;35.80;8.35;;;;;;;23.68;27.99;100647.25;5040545;28;20487;-63
2022/06/01 09:36:07;;;;;;;35.00;9.00;;;;;;;23.59;28.23;100652.97;5073256;28;20463;-63
2022/06/01 09:38:42;;;;;;;38.60;8.65;;;;;;;23.62;28.06;100651.47;5073258;28;20536;-63
2022/06/01 09:41:24;;;;;;;33.00;9.15;;;;;;;23.60;28.45;100654.59;5073155;28;20115;-63
2022/06/01 09:43:57;;;;;;;37.70;9.07;;;;;;;23.57;28.35;100638.66;5073228;28;20043;-63
2022/06/01 09:46:49;;;;;;;33.80;10.23;;;;;;;23.45;28.55;100638.66;5073300;28;20037;-63
2022/06/01 09:49:27;;;;;;;26.95;7.82;;;;;;;23.39;28.79;100649.22;5068320;28;20132;-63
2022/06/01 09:52:02;;;;;;;35.72;8.40;;;;;;;23.43;28.88;100649.31;5073128;28;20044;-63
2022/06/01 09:54:34;;;;;;;35.53;9.73;;;;;;;23.38;29.43;100646.81;5073039;28;20098;-64
2022/06/01 09:57:18;;;;;;;34.75;8.80;;;;;;;23.33;29.23;100645.06;5072863;28;20082;-64
2022/06/01 10:08:25;;;;;;;33.67;8.40;;;;;;;23.56;28.78;100652.84;5073075;28;20033;-65
2022/06/01 10:11:01;;;;;;;34.28;8.38;;;;;;;23.40;28.88;100650.03;5071818;28;20040;-65
2022/06/01 10:14:14;;;;;;;40.05;9.05;;;;;;;23.25;29.04;100648.00;5073115;28;20058;-63
2022/06/01 10:17:07;;;;;;;30.23;8.60;;;;;;;23.03;29.23;100646.56;5072705;28;20093;-63
2022/06/01 10:19:38;;;;;;;43.03;9.70;;;;;;;22.86;29.83;100648.47;5072990;28;20025;-63
2022/06/01 10:22:25;;;;;;;42.33;8.45;;;;;;;22.75;30.32;100655.59;5091311;28;20063;-63
2022/06/01 10:25:11;;;;;;;30.70;9.70;;;;;;;22.74;30.12;100651.22;5092974;28;20048;-63
2022/06/01 10:27:59;;;;;;;32.80;9.00;;;;;;;22.73;30.24;100649.59;5094495;28;20389;-63
2022/06/01 10:30:31;;;;;;;37.22;9.77;;;;;;;22.76;30.02;100653.63;5097051;28;20040;-63
2022/06/01 10:33:09;;;;;;;46.28;9.77;;;;;;;22.52;30.65;100655.28;5096988;28;20482;-63
2022/06/01 10:35:46;;;;;;;52.28;8.85;;;;;;;22.39;30.82;100652.84;5096855;28;20064;-64
2022/06/01 10:38:22;;;;;;;36.45;9.25;;;;;;;22.40;30.88;100662.75;5095411;28;20024;-64
2022/06/01 10:40:54;;;;;;;34.15;10.13;;;;;;;22.30;31.16;100662.09;5095378;28;20119;-64
2022/06/01 10:43:39;;;;;;;37.22;8.10;;;;;;;22.26;30.74;100658.41;5096577;28;20180;-66
2022/06/01 10:46:15;;;;;;;38.13;8.43;;;;;;;22.53;30.05;100667.16;5096419;28;20509;-63
2022/06/01 10:49:07;;;;;;;26.63;7.70;;;;;;;22.83;29.01;100668.56;5096560;28;20051;-66
2022/06/01 10:51:35;;;;;;;22.02;6.07;;;;;;;22.66;29.03;100660.47;5096229;28;20104;-65
2022/06/01 10:54:10;;;;;;;26.25;7.00;;;;;;;22.89;28.42;100671.88;5096368;28;20423;-63
2022/06/01 10:56:37;;;;;;;22.25;5.35;;;;;;;22.92;28.14;100680.31;5095729;28;20063;-63
2022/06/01 10:59:12;;;;;;;23.98;5.38;;;;;;;23.06;28.06;100679.94;5096282;28;20470;-64
2022/06/01 11:02:09;;;;;;;21.02;5.65;;;;;;;23.08;27.75;100677.63;5096118;28;20020;-63
2022/06/01 11:04:39;;;;;;;18.25;5.45;;;;;;;23.09;27.63;100676.47;5096254;28;20032;-64
2022/06/01 11:07:24;;;;;;;20.17;5.60;;;;;;;23.01;27.71;100682.97;5096221;28;20093;-63
2022/06/01 11:10:13;;;;;;;27.85;5.80;;;;;;;22.99;27.76;100679.72;5096210;28;20535;-64
2022/06/01 11:12:57;;;;;;;20.95;4.95;;;;;;;22.98;28.14;100683.66;5096151;28;20036;-64
2022/06/01 11:15:54;;;;;;;15.15;4.70;;;;;;;23.04;27.70;100690.56;5096060;28;20038;-64
2022/06/01 11:18:49;;;;;;;23.02;4.88;;;;;;;22.87;27.97;100683.31;5088707;28;20505;-64
2022/06/01 11:21:40;;;;;;;23.52;5.10;;;;;;;22.77;28.20;100702.34;5095472;28;20056;-65
2022/06/01 11:24:07;;;;;;;24.52;4.70;;;;;;;22.80;28.53;100693.31;5095793;28;20494;-64
2022/06/01 11:26:53;;;;;;;20.92;4.50;;;;;;;22.68;28.83;100696.94;5095785;28;20031;-65
2022/06/01 11:29:40;;;;;;;19.10;4.90;;;;;;;22.57;28.80;100690.22;5095931;28;20028;-65
2022/06/01 11:32:15;;;;;;;21.35;4.57;;;;;;;22.55;29.26;100690.59;5095735;28;20020;-64
2022/06/01 11:35:15;;;;;;;46.78;5.90;;;;;;;22.61;29.07;100697.50;5095830;28;20137;-64
2022/06/01 11:38:26;;;;;;;27.50;4.80;;;;;;;22.77;29.26;100705.13;5095361;28;20067;-64
2022/06/01 11:40:59;;;;;;;16.75;4.40;;;;;;;22.84;29.17;100699.84;5095492;28;20120;-65
2022/06/01 11:43:40;;;;;;;20.13;4.60;;;;;;;22.97;29.00;100698.66;5095539;28;20482;-65
2022/06/01 11:46:20;;;;;;;19.52;4.60;;;;;;;22.90;29.35;100709.53;5095444;28;20456;-64
2022/06/01 11:48:52;;;;;;;16.52;4.40;;;;;;;22.81;29.77;100701.31;5095478;28;20064;-64
2022/06/01 11:51:40;;;;;;;16.25;4.28;;;;;;;22.81;29.88;100708.81;5094972;28;20093;-64
2022/06/01 11:54:08;;;;;;;16.98;4.60;;;;;;;22.88;29.97;100717.38;5084766;28;20044;-64
2022/06/01 11:56:53;;;;;;;13.07;4.38;;;;;;;22.73;30.02;100723.59;5094923;28;20056;-64
2022/06/01 11:59:28;;;;;;;13.18;4.50;;;;;;;22.73;29.95;100715.28;5095153;28;20029;-64
2022/06/01 12:02:00;;;;;;;18.60;4.38;;;;;;;22.70;29.84;100722.31;5094987;28;20488;-64
2022/06/01 12:04:52;;;;;;;16.42;4.43;;;;;;;22.68;29.94;100716.31;5094890;28;20559;-63
2022/06/01 12:07:32;;;;;;;15.93;4.47;;;;;;;22.67;30.04;100716.69;5094839;28;20028;-63
2022/06/01 12:10:04;;;;;;;19.10;4.75;;;;;;;22.89;29.77;100724.53;5094936;28;20085;-63